Time;durP1;ratioP1;P1;durP2;ratioP2;P2;SDS_P1;SDS_P2;PMS_P1;PMS_P2;Temp;Humidity;BMP_temperature;BMP_pressure;BME280_temperature;BME280_humidity;BME280_pressure;Samples;Min_cycle;Max_cycle;Signal;HPM_P1;HPM_P2
2023/01/07 00:01:07;;;;;;;26.00;4.65;;;14.20;1.00;;;;;;5072237;28;20094;-67
2023/01/07 00:03:34;;;;;;;24.70;4.32;;;14.20;1.00;;;;;;5071971;28;20409;-66
2023/01/07 00:06:05;;;;;;;26.80;4.32;;;14.20;1.00;;;;;;5072130;28;20409;-67
2023/01/07 00:08:37;;;;;;;17.38;3.97;;;14.20;1.00;;;;;;5070872;28;20025;-67
2023/01/07 00:11:05;;;;;;;20.52;4.32;;;14.20;1.00;;;;;;5072541;28;20041;-66
2023/01/07 00:13:31;;;;;;;19.02;3.58;;;14.20;1.00;;;;;;5071963;28;20041;-66
2023/01/07 00:15:58;;;;;;;28.63;5.15;;;14.20;1.00;;;;;;5071998;28;20046;-66
2023/01/07 00:18:24;;;;;;;25.35;4.72;;;14.20;1.00;;;;;;5071841;28;20039;-65
2023/01/07 00:20:50;;;;;;;24.95;4.43;;;14.10;1.00;;;;;;5071944;28;20078;-66
2023/01/07 00:23:16;;;;;;;23.23;4.30;;;14.20;1.00;;;;;;5071950;28;20025;-67
2023/01/07 00:25:42;;;;;;;35.25;4.75;;;14.20;1.00;;;;;;5071691;28;20028;-66
2023/01/07 00:28:07;;;;;;;26.55;4.60;;;14.20;1.00;;;;;;5071698;28;20443;-66
2023/01/07 00:30:33;;;;;;;23.42;4.53;;;14.20;1.00;;;;;;5071486;28;20125;-65
2023/01/07 00:33:03;;;;;;;22.05;4.55;;;14.20;1.00;;;;;;5071497;28;20021;-66
2023/01/07 00:35:35;;;;;;;21.20;4.07;;;14.10;1.00;;;;;;5071435;28;20028;-65
2023/01/07 00:38:02;;;;;;;19.95;3.55;;;14.10;1.00;;;;;;5069414;28;20020;-65
2023/01/07 00:40:32;;;;;;;26.48;4.70;;;14.10;1.00;;;;;;5071681;28;20035;-66
2023/01/07 00:43:05;;;;;;;22.10;3.85;;;14.10;1.00;;;;;;5071483;28;20021;-65
2023/01/07 00:45:33;;;;;;;29.63;3.92;;;14.10;1.00;;;;;;5071394;28;20024;-65
2023/01/07 00:48:00;;;;;;;21.27;4.55;;;14.10;1.00;;;;;;5071345;28;20619;-66
2023/01/07 00:50:29;;;;;;;22.92;3.50;;;14.10;1.00;;;;;;5071162;28;20121;-66
2023/01/07 00:52:55;;;;;;;19.75;3.78;;;14.00;1.00;;;;;;5071272;28;20112;-66
2023/01/07 00:55:21;;;;;;;26.67;4.47;;;14.00;1.00;;;;;;5071122;28;20150;-66
2023/01/07 00:57:47;;;;;;;22.75;4.10;;;14.00;1.00;;;;;;5071462;28;20079;-66
2023/01/07 01:00:15;;;;;;;19.98;3.58;;;14.00;1.00;;;;;;5071113;28;20024;-67
2023/01/07 01:02:41;;;;;;;24.90;4.47;;;14.00;1.00;;;;;;5071095;28;20362;-67
2023/01/07 01:05:07;;;;;;;30.80;4.80;;;14.00;1.00;;;;;;5071067;28;20484;-66
2023/01/07 01:07:34;;;;;;;20.40;3.65;;;14.00;1.00;;;;;;5071083;28;20108;-67
2023/01/07 01:10:00;;;;;;;26.95;3.60;;;14.00;1.00;;;;;;5071414;28;20145;-66
2023/01/07 01:12:26;;;;;;;27.67;4.10;;;14.00;99.90;;;;;;5071063;28;20103;-67
2023/01/07 01:14:52;;;;;;;16.58;3.35;;;14.00;99.90;;;;;;5070947;28;20049;-65
2023/01/07 01:17:18;;;;;;;21.02;3.38;;;14.00;99.90;;;;;;5071320;28;20404;-66
2023/01/07 01:19:43;;;;;;;16.60;3.22;;;14.00;99.90;;;;;;5071114;28;20028;-66
2023/01/07 01:22:09;;;;;;;18.90;3.28;;;14.00;99.90;;;;;;5069989;28;20052;-66
2023/01/07 01:24:35;;;;;;;22.50;3.90;;;14.00;99.90;;;;;;5071401;28;20024;-66
2023/01/07 01:27:00;;;;;;;21.45;3.65;;;14.00;99.90;;;;;;5071501;28;20016;-66
2023/01/07 01:29:26;;;;;;;20.88;3.67;;;14.00;99.90;;;;;;5071876;28;20040;-67
2023/01/07 01:31:52;;;;;;;19.02;3.72;;;14.00;99.90;;;;;;5071931;28;20024;-66
2023/01/07 01:34:17;;;;;;;13.20;3.60;;;13.90;99.90;;;;;;5072114;28;20024;-67
2023/01/07 01:36:43;;;;;;;19.55;3.28;;;13.90;99.90;;;;;;5071991;28;20524;-67
2023/01/07 01:39:09;;;;;;;20.88;3.67;;;13.90;99.90;;;;;;5071902;28;20036;-66
2023/01/07 01:41:35;;;;;;;20.20;3.55;;;13.90;99.90;;;;;;5070895;28;20033;-66
2023/01/07 01:44:01;;;;;;;20.52;3.85;;;13.90;99.90;;;;;;5070884;28;20021;-66
2023/01/07 01:46:45;;;;;;;16.83;3.40;;;13.90;99.90;;;;;;5070687;28;20107;-66
2023/01/07 01:49:31;;;;;;;16.35;3.53;;;13.90;99.90;;;;;;5073768;28;20028;-66
2023/01/07 01:52:20;;;;;;;23.80;3.88;;;13.90;99.90;;;;;;5074965;28;20037;-66
2023/01/07 01:54:53;;;;;;;30.50;4.32;;;13.90;99.90;;;;;;5074591;28;20027;-66
2023/01/07 01:57:20;;;;;;;19.73;4.28;;;13.90;99.90;;;;;;5073380;28;20027;-66
2023/01/07 01:59:49;;;;;;;23.38;3.60;;;13.80;99.90;;;;;;5074609;28;20025;-66
2023/01/07 02:02:18;;;;;;;16.52;3.38;;;13.80;99.90;;;;;;5074389;28;20508;-66
2023/01/07 02:04:44;;;;;;;24.80;4.72;;;13.80;99.90;;;;;;5074174;28;20485;-65
2023/01/07 02:07:15;;;;;;;28.13;5.63;;;13.70;99.90;;;;;;5074495;28;20028;-66
2023/01/07 02:09:40;;;;;;;23.52;4.50;;;13.70;99.90;;;;;;5072841;28;20040;-66
2023/01/07 02:12:18;;;;;;;24.80;4.80;;;13.60;99.90;;;;;;5074210;28;20047;-66
2023/01/07 02:15:00;;;;;;;14.15;3.55;;;13.70;99.90;;;;;;5074083;28;20044;-65
2023/01/07 02:17:41;;;;;;;29.52;4.55;;;13.60;99.90;;;;;;5074326;28;20021;-66
2023/01/07 02:20:29;;;;;;;23.77;3.97;;;13.60;99.90;;;;;;5073940;28;20494;-66
2023/01/07 02:23:20;;;;;;;17.88;3.70;;;13.60;99.90;;;;;;5073438;28;20135;-66
2023/01/07 02:26:05;;;;;;;15.15;4.10;;;13.50;99.90;;;;;;5074052;28;20039;-66
2023/01/07 02:28:37;;;;;;;25.58;4.22;;;13.50;99.90;;;;;;5073723;28;20024;-66
2023/01/07 02:31:27;;;;;;;19.20;4.53;;;13.50;99.90;;;;;;5073792;28;20500;-66
2023/01/07 02:34:21;;;;;;;21.02;3.80;;;13.50;99.90;;;;;;5074048;28;20032;-67
2023/01/07 02:37:02;;;;;;;19.40;3.17;;;13.40;99.90;;;;;;5072550;28;20023;-66
2023/01/07 02:39:39;;;;;;;19.27;3.60;;;13.40;99.90;;;;;;5073895;28;20035;-66
2023/01/07 02:42:20;;;;;;;27.88;4.60;;;13.40;99.90;;;;;;5073794;28;20048;-66
2023/01/07 02:45:30;;;;;;;19.23;4.07;;;13.40;99.90;;;;;;5073603;28;20021;-66
2023/01/07 02:48:08;;;;;;;12.77;3.28;;;13.40;99.90;;;;;;5062518;28;20025;-67
2023/01/07 02:50:34;;;;;;;24.10;4.75;;;13.30;99.90;;;;;;5073395;28;20549;-65
2023/01/07 02:53:00;;;;;;;24.17;3.75;;;13.30;99.90;;;;;;5073364;28;20107;-66
2023/01/07 02:55:37;;;;;;;18.00;3.33;;;13.40;99.90;;;;;;5072336;28;20036;-66
2023/01/07 02:58:30;;;;;;;19.42;3.17;;;13.50;99.90;;;;;;5073328;28;20035;-66
2023/01/07 03:00:56;;;;;;;19.60;3.55;;;13.50;99.90;;;;;;5072608;28;20078;-66
2023/01/07 03:03:33;;;;;;;16.25;3.92;;;13.50;99.90;;;;;;5073264;28;20060;-66
2023/01/07 03:06:20;;;;;;;18.00;2.80;;;13.50;99.90;;;;;;5073319;28;20112;-67
2023/01/07 03:09:17;;;;;;;25.73;5.05;;;13.50;99.90;;;;;;5073066;28;20166;-66
2023/01/07 03:11:55;;;;;;;16.38;2.50;;;13.40;99.90;;;;;;5073193;28;20024;-66
2023/01/07 03:14:31;;;;;;;17.05;3.03;;;13.40;99.90;;;;;;5072912;28;20106;-66
2023/01/07 03:17:01;;;;;;;32.97;3.97;;;13.40;99.90;;;;;;5073328;28;20469;-65
2023/01/07 03:19:33;;;;;;;19.33;3.47;;;13.40;99.90;;;;;;5071709;28;20426;-66
2023/01/07 03:22:01;;;;;;;17.90;3.22;;;13.40;99.90;;;;;;5073048;28;20071;-66
2023/01/07 03:24:29;;;;;;;13.05;3.10;;;13.40;99.90;;;;;;5071712;28;20467;-67
2023/01/07 03:26:57;;;;;;;19.05;3.55;;;13.30;99.90;;;;;;5073292;28;20028;-66
2023/01/07 03:29:23;;;;;;;26.20;3.72;;;13.30;99.90;;;;;;5073597;28;20103;-65
2023/01/07 03:32:15;;;;;;;21.13;4.15;;;13.30;99.90;;;;;;5073576;28;20112;-67
2023/01/07 03:34:42;;;;;;;16.70;3.97;;;13.30;99.90;;;;;;5073081;28;20055;-65
2023/01/07 03:37:14;;;;;;;22.20;3.38;;;13.30;99.90;;;;;;5072881;28;20614;-66
2023/01/07 03:39:41;;;;;;;;;;;13.20;99.90;;;;;;5073372;28;20111;-65
2023/01/07 03:44:52;;;;;;;18.95;4.22;;;13.20;99.90;;;;;;5072889;28;20102;-66
2023/01/07 03:47:18;;;;;;;21.08;3.05;;;13.20;99.90;;;;;;5072666;28;20021;-66
2023/01/07 03:49:44;;;;;;;23.98;3.78;;;13.20;99.90;;;;;;5072454;28;20043;-66
2023/01/07 03:52:10;;;;;;;21.98;4.75;;;13.20;99.90;;;;;;5072594;28;20024;-66
2023/01/07 03:54:36;;;;;;;18.63;3.75;;;13.20;99.90;;;;;;5072718;28;20032;-65
2023/01/07 03:57:01;;;;;;;22.95;4.60;;;13.30;99.90;;;;;;5072619;28;20039;-67
2023/01/07 03:59:27;;;;;;;14.45;2.97;;;13.30;99.90;;;;;;5072430;28;20100;-66
2023/01/07 04:01:53;;;;;;;25.42;3.70;;;13.20;99.90;;;;;;5072427;28;20107;-65
2023/01/07 04:04:18;;;;;;;9.75;3.42;;;13.30;99.90;;;;;;5072160;28;20116;-66
2023/01/07 04:06:44;;;;;;;14.43;3.25;;;13.20;99.90;;;;;;5072493;28;20032;-67
2023/01/07 04:09:11;;;;;;;17.00;3.63;;;13.20;99.90;;;;;;5072578;28;20496;-67
2023/01/07 04:11:37;;;;;;;18.90;4.47;;;13.20;99.90;;;;;;5072673;28;20035;-66
2023/01/07 04:14:02;;;;;;;19.27;3.72;;;13.20;99.90;;;;;;5072235;28;20459;-66
2023/01/07 04:16:28;;;;;;;23.38;4.13;;;13.20;99.90;;;;;;5070779;28;20507;-66
2023/01/07 04:18:54;;;;;;;12.45;2.92;;;13.20;99.90;;;;;;5071883;28;20032;-66
2023/01/07 04:21:19;;;;;;;21.67;3.00;;;13.20;99.90;;;;;;5072204;28;20059;-66
2023/01/07 04:23:45;;;;;;;17.58;4.07;;;13.20;99.90;;;;;;5071669;28;20470;-66
2023/01/07 04:26:11;;;;;;;23.45;3.35;;;13.20;99.90;;;;;;5071932;28;20107;-66
2023/01/07 04:28:36;;;;;;;13.95;2.72;;;13.20;99.90;;;;;;5071488;28;20021;-66
2023/01/07 04:31:02;;;;;;;19.75;4.35;;;13.20;99.90;;;;;;5071702;28;20028;-66
2023/01/07 04:33:28;;;;;;;19.13;3.30;;;13.20;99.90;;;;;;5071485;28;20028;-65
2023/01/07 04:35:56;;;;;;;16.70;3.58;;;13.10;99.90;;;;;;5070242;28;20036;-66
2023/01/07 04:38:22;;;;;;;19.77;2.90;;;13.10;99.90;;;;;;5071585;28;20048;-66
2023/01/07 04:40:48;;;;;;;15.85;3.38;;;13.10;99.90;;;;;;5071460;28;20078;-66
2023/01/07 04:43:14;;;;;;;12.27;3.17;;;13.10;99.90;;;;;;5071502;28;20025;-66
2023/01/07 04:45:40;;;;;;;31.75;3.17;;;13.10;99.90;;;;;;5071363;28;20039;-66
2023/01/07 04:48:06;;;;;;;18.35;4.00;;;13.10;99.90;;;;;;5071244;28;20058;-67
2023/01/07 04:50:32;;;;;;;13.50;3.65;;;13.10;99.90;;;;;;5071198;28;20032;-66
2023/01/07 04:52:57;;;;;;;12.73;2.85;;;13.00;99.90;;;;;;5071277;28;20103;-65
2023/01/07 04:55:23;;;;;;;17.88;3.63;;;13.00;99.90;;;;;;5071386;28;20515;-66
2023/01/07 04:57:49;;;;;;;15.93;3.92;;;13.00;99.90;;;;;;5071234;28;20025;-67
2023/01/07 05:00:14;;;;;;;14.15;3.22;;;13.00;99.90;;;;;;5071140;28;20522;-66
2023/01/07 05:02:40;;;;;;;21.45;3.33;;;13.00;99.90;;;;;;5071108;28;20025;-66
2023/01/07 05:05:06;;;;;;;20.63;3.17;;;13.00;99.90;;;;;;5069846;28;20020;-66
2023/01/07 05:07:32;;;;;;;25.20;3.75;;;13.00;99.90;;;;;;5071072;28;20487;-66
2023/01/07 05:09:58;;;;;;;19.77;3.80;;;13.00;99.90;;;;;;5069751;28;20044;-65
2023/01/07 05:12:23;;;;;;;23.55;3.20;;;12.90;99.90;;;;;;5071143;28;20027;-65
2023/01/07 05:14:49;;;;;;;18.08;4.03;;;13.00;99.90;;;;;;5070993;28;20045;-66
2023/01/07 05:17:15;;;;;;;14.05;2.92;;;12.90;99.90;;;;;;5070881;28;20103;-67
2023/01/07 05:19:40;;;;;;;12.85;3.13;;;12.90;99.90;;;;;;5070883;28;20029;-66
2023/01/07 05:22:06;;;;;;;18.33;3.25;;;12.90;99.90;;;;;;5070805;28;20070;-65
2023/01/07 05:24:32;;;;;;;23.15;4.22;;;12.90;99.90;;;;;;5070919;28;20036;-66
2023/01/07 05:26:57;;;;;;;15.50;3.22;;;12.90;99.90;;;;;;5071030;28;20028;-67
2023/01/07 05:29:23;;;;;;;21.65;3.22;;;12.80;99.90;;;;;;5070769;28;20528;-66
2023/01/07 05:31:48;;;;;;;22.98;4.93;;;12.80;99.90;;;;;;5070820;28;20513;-67
2023/01/07 05:34:14;;;;;;;8.82;2.45;;;12.80;99.90;;;;;;5071071;28;20489;-67
2023/01/07 05:36:40;;;;;;;16.63;3.38;;;12.80;99.90;;;;;;5070856;28;20028;-67
2023/01/07 05:39:06;;;;;;;16.67;3.58;;;12.80;99.90;;;;;;5071016;28;20044;-68
2023/01/07 05:41:31;;;;;;;17.88;3.17;;;12.80;99.90;;;;;;5071067;28;20431;-65
2023/01/07 05:43:57;;;;;;;16.35;3.38;;;12.80;99.90;;;;;;5069518;28;20028;-66
2023/01/07 05:46:22;;;;;;;15.23;3.53;;;12.80;99.90;;;;;;5070655;28;20021;-67
2023/01/07 05:48:48;;;;;;;22.75;3.95;;;12.70;99.90;;;;;;5070781;28;20108;-67
2023/01/07 05:51:14;;;;;;;22.30;4.75;;;12.60;99.90;;;;;;5066986;28;20029;-66
2023/01/07 05:53:40;;;;;;;15.73;4.13;;;12.70;99.90;;;;;;5062119;28;20025;-67
2023/01/07 05:56:06;;;;;;;25.73;4.10;;;12.60;99.90;;;;;;5050934;28;20032;-67
2023/01/07 05:58:31;;;;;;;12.25;2.60;;;12.70;99.90;;;;;;5050539;28;20028;-66
2023/01/07 06:00:57;;;;;;;22.83;3.88;;;12.60;99.90;;;;;;5050578;28;20033;-66
2023/01/07 06:03:23;;;;;;;14.75;3.20;;;12.60;99.90;;;;;;5050593;28;20067;-67
2023/01/07 06:05:49;;;;;;;15.10;3.25;;;12.50;99.90;;;;;;5050506;28;20055;-67
2023/01/07 06:08:15;;;;;;;23.90;4.05;;;12.40;99.90;;;;;;5050735;28;20029;-65
2023/01/07 06:10:41;;;;;;;15.60;2.88;;;12.40;99.90;;;;;;5062423;28;20435;-67
2023/01/07 06:13:07;;;;;;;15.77;2.80;;;12.40;99.90;;;;;;5070293;28;20040;-66
2023/01/07 06:15:32;;;;;;;20.35;4.38;;;12.40;99.90;;;;;;5059370;28;20029;-66
2023/01/07 06:17:58;;;;;;;23.10;3.50;;;12.40;99.90;;;;;;5066264;28;20104;-67
2023/01/07 06:20:24;;;;;;;13.95;3.17;;;12.40;99.90;;;;;;5048605;28;20661;-67
2023/01/07 06:22:50;;;;;;;16.92;2.72;;;12.40;99.90;;;;;;5049698;28;20528;-67
2023/01/07 06:25:16;;;;;;;18.20;3.05;;;12.60;99.90;;;;;;5050378;28;20021;-68
2023/01/07 06:27:42;;;;;;;19.70;4.13;;;12.40;99.90;;;;;;5050669;28;20024;-67
2023/01/07 06:30:09;;;;;;;16.95;3.90;;;12.40;99.90;;;;;;5050092;28;20042;-67
2023/01/07 06:32:39;;;;;;;27.55;4.00;;;12.50;99.90;;;;;;5053548;28;20025;-67
2023/01/07 06:35:07;;;;;;;19.33;3.47;;;12.50;99.90;;;;;;5052099;28;20025;-68
2023/01/07 06:37:33;;;;;;;19.30;3.90;;;12.50;99.90;;;;;;5056400;28;20029;-67
2023/01/07 06:39:58;;;;;;;23.23;4.32;;;12.50;99.90;;;;;;5074100;28;20028;-67
2023/01/07 06:42:24;;;;;;;22.65;3.67;;;12.50;99.90;;;;;;5075249;28;20598;-68
2023/01/07 06:44:50;;;;;;;13.63;2.80;;;12.60;99.90;;;;;;5074718;28;20029;-68
2023/01/07 06:47:15;;;;;;;13.05;2.88;;;12.60;99.90;;;;;;5055581;28;20013;-67
2023/01/07 06:49:41;;;;;;;21.02;3.95;;;12.60;99.90;;;;;;5054079;28;20037;-67
2023/01/07 06:52:07;;;;;;;16.40;2.72;;;12.60;99.90;;;;;;5054053;28;20017;-67
2023/01/07 06:54:33;;;;;;;15.80;2.83;;;12.60;99.90;;;;;;5053672;28;20116;-67
2023/01/07 06:56:58;;;;;;;15.68;2.67;;;12.50;99.90;;;;;;5053649;28;20032;-67
2023/01/07 06:59:24;;;;;;;16.77;3.72;;;12.60;99.90;;;;;;5052261;28;20071;-67
2023/01/07 07:01:50;;;;;;;14.40;3.40;;;12.50;99.90;;;;;;5055384;28;20024;-68
2023/01/07 07:04:16;;;;;;;16.35;3.78;;;12.50;99.90;;;;;;5053224;28;20539;-67
2023/01/07 07:06:41;;;;;;;18.10;2.95;;;12.50;99.90;;;;;;5052189;28;20021;-67
2023/01/07 07:09:07;;;;;;;14.52;3.95;;;12.50;99.90;;;;;;5062736;28;20587;-67
2023/01/07 07:11:33;;;;;;;12.80;3.63;;;12.60;99.90;;;;;;5058890;28;20082;-67
2023/01/07 07:13:58;;;;;;;13.10;2.67;;;12.50;99.90;;;;;;5072922;28;20064;-67
2023/01/07 07:16:24;;;;;;;19.05;4.03;;;12.50;99.90;;;;;;5073307;28;20035;-66
2023/01/07 07:18:52;;;;;;;13.82;3.25;;;12.50;99.90;;;;;;5053659;28;20031;-67
2023/01/07 07:21:18;;;;;;;10.32;3.25;;;12.50;99.90;;;;;;5053982;28;20052;-67
2023/01/07 07:23:44;;;;;;;16.10;3.13;;;12.50;99.90;;;;;;5053541;28;20426;-67
2023/01/07 07:26:09;;;;;;;15.95;3.40;;;12.50;99.90;;;;;;5052465;28;20065;-67
2023/01/07 07:28:35;;;;;;;15.40;3.55;;;12.50;99.90;;;;;;5056869;28;20086;-67
2023/01/07 07:31:01;;;;;;;27.17;4.00;;;12.50;99.90;;;;;;5073879;28;20063;-67
2023/01/07 07:33:27;;;;;;;19.88;3.90;;;12.50;99.90;;;;;;5073845;28;20478;-67
2023/01/07 07:35:54;;;;;;;20.83;3.28;;;12.50;99.90;;;;;;5073949;28;20539;-66
2023/01/07 07:38:19;;;;;;;21.10;2.92;;;12.50;99.90;;;;;;5071689;28;20039;-66
2023/01/07 07:40:46;;;;;;;19.95;3.50;;;12.40;99.90;;;;;;5073163;28;20099;-67
2023/01/07 07:43:12;;;;;;;23.70;3.95;;;12.40;99.90;;;;;;5071696;28;20037;-67
2023/01/07 07:45:40;;;;;;;22.75;4.35;;;12.50;99.90;;;;;;5072842;28;20032;-68
2023/01/07 07:48:06;;;;;;;20.35;3.38;;;12.40;99.90;;;;;;5073073;28;20078;-69
2023/01/07 07:50:32;;;;;;;22.10;3.78;;;12.40;99.90;;;;;;5072700;28;20037;-70
2023/01/07 07:52:58;;;;;;;20.15;3.15;;;12.40;99.90;;;;;;5072616;28;20610;-68
2023/01/07 07:55:23;;;;;;;17.85;3.78;;;12.40;99.90;;;;;;5072403;28;20046;-69
2023/01/07 07:57:51;;;;;;;18.95;2.85;;;12.50;99.90;;;;;;5072541;28;20079;-70
2023/01/07 08:00:17;;;;;;;16.25;2.83;;;12.50;99.90;;;;;;5061699;28;20021;-70
2023/01/07 08:02:43;;;;;;;15.82;2.92;;;12.40;99.90;;;;;;5052163;28;20112;-69
2023/01/07 08:05:10;;;;;;;17.83;3.65;;;12.40;99.90;;;;;;5052474;28;20029;-69
2023/01/07 08:07:36;;;;;;;14.20;3.38;;;12.50;99.90;;;;;;5053173;28;20021;-68
2023/01/07 08:10:02;;;;;;;19.00;3.22;;;12.40;99.90;;;;;;5070425;28;20037;-67
2023/01/07 08:12:27;;;;;;;17.60;3.30;;;12.40;99.90;;;;;;5072400;28;20051;-67
2023/01/07 08:14:53;;;;;;;18.42;2.72;;;12.40;99.90;;;;;;5071492;28;20062;-69
2023/01/07 08:17:19;;;;;;;15.73;2.78;;;12.40;99.90;;;;;;5071175;28;20016;-68
2023/01/07 08:19:44;;;;;;;13.95;4.00;;;12.40;99.90;;;;;;5071254;28;20508;-68
2023/01/07 08:22:10;;;;;;;19.25;3.17;;;12.40;99.90;;;;;;5071802;28;20436;-68
2023/01/07 08:24:36;;;;;;;16.40;3.15;;;12.40;99.90;;;;;;5072345;28;20033;-70
2023/01/07 08:27:01;;;;;;;20.02;3.40;;;12.40;99.90;;;;;;5070545;28;20028;-70
2023/01/07 08:29:27;;;;;;;29.92;4.18;;;12.30;99.90;;;;;;5072454;28;20572;-71
2023/01/07 08:31:53;;;;;;;21.45;3.33;;;12.20;99.90;;;;;;5068643;28;20477;-72
2023/01/07 08:34:19;;;;;;;14.80;3.53;;;12.10;99.90;;;;;;5062931;28;20051;-72
2023/01/07 08:36:44;;;;;;;30.58;4.05;;;12.00;99.90;;;;;;5054586;28;20040;-70
2023/01/07 08:39:11;;;;;;;22.92;4.13;;;11.90;99.90;;;;;;5066694;28;20523;-70
2023/01/07 08:41:37;;;;;;;16.73;3.05;;;11.90;99.90;;;;;;5071355;28;20029;-70
2023/01/07 08:44:03;;;;;;;33.03;3.95;;;11.80;99.90;;;;;;5071035;28;20601;-69
2023/01/07 08:46:28;;;;;;;11.32;3.03;;;11.80;99.90;;;;;;5067128;28;20059;-69
2023/01/07 08:48:54;;;;;;;24.95;3.30;;;11.80;99.90;;;;;;5069295;28;20021;-68
2023/01/07 08:51:20;;;;;;;17.35;3.28;;;11.70;99.90;;;;;;5070800;28;20035;-70
2023/01/07 08:53:46;;;;;;;22.42;3.97;;;11.70;99.90;;;;;;5070713;28;20095;-70
2023/01/07 08:56:12;;;;;;;23.13;3.17;;;11.70;99.90;;;;;;5068746;28;20041;-70
2023/01/07 08:58:38;;;;;;;22.05;3.70;;;11.70;99.90;;;;;;5068568;28;20066;-69
2023/01/07 09:01:05;;;;;;;9.20;3.05;;;11.70;99.90;;;;;;5070702;28;20472;-70
2023/01/07 09:03:31;;;;;;;23.90;5.43;;;11.70;99.90;;;;;;5065221;28;20025;-70
2023/01/07 09:05:57;;;;;;;20.17;3.40;;;11.70;99.90;;;;;;5070938;28;20024;-69
2023/01/07 09:08:23;;;;;;;19.02;4.18;;;11.70;99.90;;;;;;5070511;28;20024;-68
2023/01/07 09:10:49;;;;;;;17.88;3.30;;;11.70;99.90;;;;;;5058942;28;20393;-68
2023/01/07 09:13:15;;;;;;;30.55;5.00;;;11.70;99.90;;;;;;5054618;28;20124;-70
2023/01/07 09:15:40;;;;;;;20.48;3.58;;;11.70;99.90;;;;;;5069616;28;20060;-69
2023/01/07 09:18:06;;;;;;;15.98;3.80;;;11.70;99.90;;;;;;5064297;28;20461;-70
2023/01/07 09:20:32;;;;;;;18.95;3.75;;;11.70;99.90;;;;;;5071229;28;20456;-69
2023/01/07 09:22:58;;;;;;;24.63;4.68;;;11.70;99.90;;;;;;5064096;28;20017;-71
2023/01/07 09:25:24;;;;;;;25.92;5.18;;;11.70;99.90;;;;;;5052608;28;20032;-68
2023/01/07 09:27:50;;;;;;;21.50;4.85;;;11.70;99.90;;;;;;5063263;28;20028;-70
2023/01/07 09:30:16;;;;;;;14.52;3.50;;;11.80;99.90;;;;;;5053493;28;20036;-69
2023/01/07 09:32:42;;;;;;;25.60;5.35;;;11.80;99.90;;;;;;5066399;28;20029;-69
2023/01/07 09:35:08;;;;;;;25.33;4.75;;;11.80;99.90;;;;;;5059561;28;20052;-69
2023/01/07 09:37:35;;;;;;;22.85;4.32;;;11.80;99.90;;;;;;5068570;28;20025;-70
2023/01/07 09:40:01;;;;;;;21.73;5.53;;;11.70;99.90;;;;;;5066263;28;20027;-69
2023/01/07 09:42:54;;;;;;;17.55;5.03;;;11.70;99.90;;;;;;5056123;28;20460;-69
2023/01/07 09:45:26;;;;;;;28.80;3.92;;;11.70;99.90;;;;;;5068434;28;20071;-70
2023/01/07 09:47:56;;;;;;;19.83;4.35;;;11.70;99.90;;;;;;5060358;28;20025;-70
2023/01/07 09:50:38;;;;;;;26.90;4.95;;;11.80;99.90;;;;;;5055349;28;20029;-70
2023/01/07 09:53:12;;;;;;;21.08;4.45;;;11.80;99.90;;;;;;5058238;28;20044;-70
2023/01/07 09:55:40;;;;;;;31.30;4.97;;;11.80;99.90;;;;;;5067041;28;20028;-71
2023/01/07 09:58:12;;;;;;;31.25;4.88;;;11.70;99.90;;;;;;5069447;28;20437;-71
2023/01/07 10:00:47;;;;;;;28.02;4.47;;;11.70;99.90;;;;;;5058197;28;20037;-70
2023/01/07 10:03:28;;;;;;;19.83;3.70;;;11.70;99.90;;;;;;5049178;28;20029;-70
2023/01/07 10:06:09;;;;;;;23.17;4.43;;;11.80;99.90;;;;;;5060975;28;20025;-71
2023/01/07 10:08:43;;;;;;;19.25;4.75;;;11.80;99.90;;;;;;5071213;28;20058;-71
2023/01/07 10:11:51;;;;;;;21.65;4.80;;;11.80;99.90;;;;;;5072029;28;20493;-70
2023/01/07 10:14:29;;;;;;;20.70;5.25;;;12.30;99.90;;;;;;5054117;28;20123;-74
2023/01/07 10:16:58;;;;;;;26.83;4.57;;;11.90;99.90;;;;;;5052952;28;20023;-71
2023/01/07 10:19:27;;;;;;;23.67;4.70;;;11.90;99.90;;;;;;5068712;28;20413;-70
2023/01/07 10:22:16;;;;;;;20.95;4.03;;;12.00;99.90;;;;;;5058936;28;20082;-71
2023/01/07 10:24:47;;;;;;;27.25;5.72;;;12.00;99.90;;;;;;5053995;28;20127;-71
2023/01/07 10:27:19;;;;;;;18.48;3.75;;;12.00;99.90;;;;;;5057223;28;20033;-71
2023/01/07 10:29:47;;;;;;;24.63;4.85;;;12.00;99.90;;;;;;5054696;28;20411;-72
2023/01/07 10:32:20;;;;;;;21.77;4.43;;;12.00;99.90;;;;;;5052806;28;20040;-70
2023/01/07 10:34:55;;;;;;;29.65;5.65;;;12.00;99.90;;;;;;5053533;28;20020;-71
2023/01/07 10:37:30;;;;;;;19.67;3.83;;;12.00;99.90;;;;;;5053873;28;20033;-71
2023/01/07 10:40:15;;;;;;;25.92;4.47;;;12.00;99.90;;;;;;5052441;28;20025;-69
2023/01/07 10:42:54;;;;;;;29.05;4.28;;;12.00;99.90;;;;;;5067401;28;20120;-71
2023/01/07 10:45:59;;;;;;;22.38;4.28;;;12.00;99.90;;;;;;5056117;28;20029;-70
2023/01/07 10:48:43;;;;;;;28.48;3.90;;;12.00;99.90;;;;;;5056549;28;20075;-69
2023/01/07 10:51:48;;;;;;;31.73;5.60;;;12.00;99.90;;;;;;5060160;28;20420;-69
2023/01/07 10:54:36;;;;;;;16.25;4.35;;;12.00;99.90;;;;;;5073670;28;20537;-69
2023/01/07 10:57:24;;;;;;;25.40;5.57;;;12.00;99.90;;;;;;5060627;28;20029;-69
2023/01/07 10:59:52;;;;;;;28.73;4.70;;;12.00;99.90;;;;;;5061800;28;20025;-68
2023/01/07 11:02:21;;;;;;;17.85;4.00;;;12.00;99.90;;;;;;5070904;28;20071;-69
2023/01/07 11:04:47;;;;;;;19.65;4.18;;;12.00;99.90;;;;;;5059960;28;20099;-70
2023/01/07 11:07:44;;;;;;;19.45;5.32;;;12.00;99.90;;;;;;5073453;28;20032;-70
2023/01/07 11:10:15;;;;;;;24.30;5.18;;;12.00;99.90;;;;;;5059788;28;20029;-70
2023/01/07 11:12:54;;;;;;;14.05;5.00;;;12.00;99.90;;;;;;5061965;28;20481;-68
2023/01/07 11:15:44;;;;;;;17.70;4.60;;;12.00;99.90;;;;;;5065533;28;20113;-68
2023/01/07 11:18:24;;;;;;;19.27;4.32;;;12.10;99.90;;;;;;5071773;28;20081;-69
2023/01/07 11:20:53;;;;;;;22.75;5.70;;;12.10;99.90;;;;;;5067953;28;20025;-69
2023/01/07 11:23:29;;;;;;;23.15;3.83;;;12.10;99.90;;;;;;5066548;28;20017;-69
2023/01/07 11:26:21;;;;;;;17.38;4.88;;;12.10;99.90;;;;;;5062122;28;20492;-68
2023/01/07 11:28:53;;;;;;;13.35;4.10;;;12.10;99.90;;;;;;5064286;28;20033;-70
2023/01/07 11:31:40;;;;;;;;;;;12.20;99.90;;;;;;5057609;28;20033;-67
2023/01/07 11:34:15;;;;;;;25.80;4.30;;;12.20;99.90;;;;;;5071398;28;20292;-67
2023/01/07 11:36:41;;;;;;;26.00;4.88;;;12.20;99.90;;;;;;5064483;28;20085;-67
2023/01/07 11:39:17;;;;;;;17.90;3.85;;;12.20;99.90;;;;;;5072756;28;20036;-69
2023/01/07 11:45:31;;;;;;;22.90;5.13;;;12.30;99.90;;;;;;5021082;28;20094;-68
2023/01/07 11:48:09;;;;;;;19.88;4.57;;;12.30;99.90;;;;;;5062469;28;20474;-70
2023/01/07 11:50:40;;;;;;;23.42;4.20;;;12.30;99.90;;;;;;5067001;28;20032;-71
2023/01/07 11:53:15;;;;;;;16.73;4.43;;;12.30;99.90;;;;;;5060695;28;20021;-71
2023/01/07 11:56:05;;;;;;;26.17;4.47;;;12.30;99.90;;;;;;5066153;28;20477;-72
2023/01/07 11:58:41;;;;;;;21.88;3.92;;;12.30;99.90;;;;;;5041139;28;20036;-71
2023/01/07 12:01:07;;;;;;;20.40;4.85;;;12.30;99.90;;;;;;5070209;28;20473;-70
2023/01/07 12:03:34;;;;;;;20.60;5.43;;;12.30;99.90;;;;;;5069511;28;20043;-71
2023/01/07 12:06:07;;;;;;;20.10;4.43;;;12.30;99.90;;;;;;5070732;28;20229;-69
2023/01/07 12:08:34;;;;;;;20.48;4.20;;;12.30;99.90;;;;;;5071095;28;20056;-72
2023/01/07 12:11:08;;;;;;;21.15;3.92;;;12.30;99.90;;;;;;5070496;28;20513;-70
2023/01/07 12:13:35;;;;;;;22.33;5.10;;;12.30;99.90;;;;;;5069630;28;20040;-70
2023/01/07 12:16:06;;;;;;;27.30;4.85;;;12.30;99.90;;;;;;5067594;28;20057;-70
2023/01/07 12:18:41;;;;;;;12.48;3.85;;;12.30;99.90;;;;;;5065671;28;20028;-69
2023/01/07 12:21:16;;;;;;;24.48;4.70;;;12.30;99.90;;;;;;5058293;28;20029;-70
2023/01/07 12:23:50;;;;;;;21.15;3.70;;;12.30;99.90;;;;;;5060487;28;20064;-70
2023/01/07 12:26:24;;;;;;;26.95;4.95;;;12.30;99.90;;;;;;5056464;28;20489;-70
2023/01/07 12:29:27;;;;;;;17.65;4.07;;;12.30;99.90;;;;;;5051686;28;20055;-69
2023/01/07 12:32:21;;;;;;;25.23;5.15;;;12.30;99.90;;;;;;5063215;28;20032;-69
2023/01/07 12:35:19;;;;;;;20.35;3.97;;;12.30;99.90;;;;;;5071553;28;20131;-69
2023/01/07 12:38:11;;;;;;;19.23;3.70;;;12.30;99.90;;;;;;5054593;28;20178;-69
2023/01/07 12:40:48;;;;;;;12.07;3.30;;;12.30;99.90;;;;;;5051397;28;20025;-69
2023/01/07 12:43:34;;;;;;;18.55;3.70;;;12.30;99.90;;;;;;5067644;28;20028;-69
2023/01/07 12:46:03;;;;;;;17.65;5.32;;;12.30;99.90;;;;;;5051654;28;20023;-69
2023/01/07 12:48:34;;;;;;;24.80;4.20;;;12.30;99.90;;;;;;5051459;28;20405;-69
2023/01/07 12:51:07;;;;;;;20.95;4.28;;;12.30;99.90;;;;;;5051338;28;20049;-69
2023/01/07 12:53:42;;;;;;;25.77;3.80;;;12.30;99.90;;;;;;5049871;28;20351;-69
2023/01/07 12:56:26;;;;;;;19.27;3.78;;;12.30;99.90;;;;;;5052588;28;20047;-69
2023/01/07 12:59:23;;;;;;;31.10;6.78;;;12.30;99.90;;;;;;5054282;28;20031;-70
2023/01/07 13:01:53;;;;;;;19.50;3.95;;;12.30;99.90;;;;;;5061684;28;20521;-69